»·PEaware :: QXE2486 KLAS-KLAX

QXE2486 :: KLAS-KLAX

FLIGHT INFORMATION

Flight Status: Arrived
Operator:
Horizon Air
More flights by this operator :: More flights under this callsign
Pilot: Todd L. (1100)
Aircraft: DEHAVILLAND DASH 8 400
(DH8D)
More flights by this aircraft type
Origin: KLAS McCarran Intl
United States
Destination: KLAX Los Angeles Intl
United States
More flights between these airports :: More routes between these airports
Route: BOACH6 HEC RIIVR2
File this flight plan on PilotEdge
Remarks: Shared Cockpit Flight
Altitude:
(Current/Filed)
24,000ft
Speed:
(Current/Filed)
350kts
Departed: 09-Jan-16 10:40 PM
Arrived: 09-Jan-16 11:31 PM
Distance/Time
Traveled:
205nm/0:51
Distance/Time
To Go:
Arrived

Flight Plot

Page will automatically refresh every two minutes.


Map Options




Map Legend


Flown Route
Filed Route
Departure Airport
Arrival Airport
Navaid (VOR, NDB)
Fix

Horizontal Profiles

Position Reports

Time Latitude Longitude Heading Altitude Ground
Speed
09-Jan-16 22:13 36.086697 -115.153742 114 2122ft 0kts
09-Jan-16 22:14 36.086697 -115.153742 114 2122ft 0kts
09-Jan-16 22:15 36.086697 -115.153742 114 2122ft 0kts
09-Jan-16 22:16 36.086697 -115.153742 114 2122ft 0kts
09-Jan-16 22:17 36.086697 -115.153742 114 2122ft 0kts
09-Jan-16 22:18 36.086697 -115.153742 114 2122ft 0kts
09-Jan-16 22:19 36.086697 -115.153742 114 2123ft 0kts
09-Jan-16 22:20 36.086697 -115.153742 114 2122ft 0kts
09-Jan-16 22:21 36.086697 -115.153742 114 2122ft 0kts
09-Jan-16 22:22 36.086837 -115.154112 115 2122ft 0kts
09-Jan-16 22:23 36.086837 -115.154113 115 2122ft 0kts
09-Jan-16 22:24 36.086837 -115.154113 115 2122ft 0kts
09-Jan-16 22:25 36.086837 -115.154113 115 2122ft 0kts
09-Jan-16 22:26 36.086837 -115.154113 115 2122ft 0kts
09-Jan-16 22:27 36.087599 -115.155360 328 2122ft 15kts
09-Jan-16 22:28 36.084623 -115.159295 203 2122ft 32kts
09-Jan-16 22:29 36.077622 -115.163151 206 2122ft 23kts
09-Jan-16 22:30 36.073783 -115.165776 268 2122ft 5kts
09-Jan-16 22:31 36.073788 -115.165869 274 2122ft 0kts
09-Jan-16 22:32 36.073788 -115.165869 274 2122ft 0kts
09-Jan-16 22:33 36.073788 -115.165869 274 2122ft 0kts
09-Jan-16 22:34 36.074771 -115.167173 22 2122ft 0kts
09-Jan-16 22:35 36.100463 -115.151935 19 3266ft 148kts
09-Jan-16 22:36 36.112794 -115.204915 287 5263ft 209kts
09-Jan-16 22:37 36.120771 -115.277316 234 8249ft 216kts
09-Jan-16 22:38 36.063708 -115.310907 200 10718ft 245kts
09-Jan-16 22:39 35.997425 -115.340432 204 12836ft 259kts
09-Jan-16 22:40 35.930455 -115.374475 205 14869ft 261kts
09-Jan-16 22:41 35.856721 -115.364253 166 16599ft 278kts
09-Jan-16 22:42 35.782534 -115.335108 166 18121ft 283kts
09-Jan-16 22:43 35.705208 -115.306724 178 19256ft 290kts
09-Jan-16 22:44 35.639211 -115.349314 230 20331ft 270kts
09-Jan-16 22:45 35.587705 -115.416019 234 21465ft 267kts
09-Jan-16 22:46 35.537600 -115.483613 234 22516ft 266kts
09-Jan-16 22:47 35.487496 -115.550758 234 23483ft 266kts
09-Jan-16 22:48 35.437159 -115.618186 235 24152ft 274kts
09-Jan-16 22:49 35.383741 -115.689951 234 24203ft 294kts
09-Jan-16 22:50 35.326920 -115.765647 234 24199ft 307kts
09-Jan-16 22:51 35.268153 -115.843621 234 24194ft 315kts
09-Jan-16 22:52 35.208013 -115.923348 234 24190ft 324kts
09-Jan-16 22:53 35.146604 -116.005027 233 24241ft 327kts
09-Jan-16 22:54 35.084202 -116.086716 233 24256ft 330kts
09-Jan-16 22:55 35.021514 -116.169207 233 24257ft 332kts
09-Jan-16 22:56 34.958521 -116.251889 233 24257ft 333kts
09-Jan-16 22:57 34.895324 -116.334624 232 24257ft 333kts
09-Jan-16 22:58 34.832003 -116.417327 232 24257ft 334kts
09-Jan-16 22:59 34.767177 -116.498531 223 24254ft 340kts
09-Jan-16 23:00 34.689042 -116.563956 226 24257ft 338kts
09-Jan-16 23:01 34.614966 -116.635156 223 24257ft 340kts
09-Jan-16 23:02 34.539899 -116.705259 223 24257ft 340kts
09-Jan-16 23:03 34.465311 -116.775260 223 24257ft 340kts
09-Jan-16 23:04 34.390378 -116.845305 223 24257ft 340kts
09-Jan-16 23:05 34.315363 -116.915284 223 24257ft 340kts
09-Jan-16 23:06 34.240287 -116.985154 223 24257ft 340kts
09-Jan-16 23:07 34.165204 -117.054871 223 24257ft 340kts
09-Jan-16 23:08 34.090053 -117.124469 223 24257ft 340kts
09-Jan-16 23:09 34.053316 -117.220414 261 24257ft 319kts
09-Jan-16 23:10 34.040318 -117.325805 267 24257ft 317kts
09-Jan-16 23:11 34.031112 -117.426326 267 23590ft 278kts
09-Jan-16 23:12 34.023015 -117.514626 266 21489ft 255kts
09-Jan-16 23:13 34.014742 -117.603344 266 17810ft 282kts
09-Jan-16 23:14 34.007029 -117.683367 264 14599ft 291kts
09-Jan-16 23:15 33.997636 -117.779303 264 10992ft 284kts
09-Jan-16 23:16 33.988412 -117.871165 264 8042ft 254kts
09-Jan-16 23:17 33.981598 -117.941720 264 6958ft 199kts
09-Jan-16 23:18 33.975719 -118.009369 265 5940ft 181kts
09-Jan-16 23:19 33.970610 -118.064374 263 5238ft 171kts
09-Jan-16 23:20 33.964742 -118.123136 262 4312ft 180kts
09-Jan-16 23:21 33.958496 -118.183899 261 3338ft 181kts
09-Jan-16 23:22 33.952173 -118.244029 261 2374ft 175kts
09-Jan-16 23:23 33.946218 -118.299386 262 1481ft 149kts
09-Jan-16 23:24 33.942038 -118.341624 263 815ft 121kts
09-Jan-16 23:25 33.937761 -118.380886 262 215ft 117kts
09-Jan-16 23:26 33.935444 -118.401468 225 133ft 11kts
09-Jan-16 23:27 33.933196 -118.402757 172 133ft 0kts
09-Jan-16 23:28 33.933196 -118.402757 172 133ft 0kts

Navigation Log

Ident Type
Flight plan parsing failed, navigation log unavailable